Time;durP1;ratioP1;P1;durP2;ratioP2;P2;SDS_P1;SDS_P2;PMS_P1;PMS_P2;Temp;Humidity;BMP_temperature;BMP_pressure;BME280_temperature;BME280_humidity;BME280_pressure;Samples;Min_cycle;Max_cycle;Signal;HPM_P1;HPM_P2
2021/04/19 00:00:36;;;;;;;14.10;10.77;;;13.00;51.70;;;;;;5026287;28;20212;-45
2021/04/19 00:03:02;;;;;;;13.97;10.40;;;13.10;51.50;;;;;;5024996;28;20237;-45
2021/04/19 00:05:28;;;;;;;12.90;10.00;;;13.10;51.30;;;;;;5023693;28;20539;-46
2021/04/19 00:07:53;;;;;;;12.83;11.00;;;13.10;51.40;;;;;;5029670;28;20198;-45
2021/04/19 00:10:20;;;;;;;11.57;9.83;;;13.00;51.50;;;;;;5022120;28;20268;-45
2021/04/19 00:12:47;;;;;;;15.00;10.60;;;12.80;52.20;;;;;;5023685;28;20268;-44
2021/04/19 00:15:15;;;;;;;12.30;9.27;;;12.60;53.10;;;;;;5023354;28;20440;-46
2021/04/19 00:17:40;;;;;;;14.50;10.53;;;12.40;53.60;;;;;;5030895;28;20479;-44
2021/04/19 00:20:07;;;;;;;13.87;9.83;;;12.30;53.70;;;;;;5034063;28;20501;-44
2021/04/19 00:22:33;;;;;;;12.50;9.87;;;12.30;53.90;;;;;;5024782;28;20190;-48
2021/04/19 00:25:00;;;;;;;13.10;10.53;;;12.20;53.80;;;;;;5033330;28;20420;-44
2021/04/19 00:27:25;;;;;;;13.03;10.50;;;12.10;53.60;;;;;;5026833;28;20204;-45
2021/04/19 00:29:51;;;;;;;12.13;9.70;;;12.00;54.00;;;;;;5023009;28;20519;-45
2021/04/19 00:32:16;;;;;;;14.63;10.77;;;11.90;54.10;;;;;;5023088;28;20668;-45
2021/04/19 00:34:42;;;;;;;13.37;10.27;;;12.00;54.10;;;;;;5032659;28;20221;-45
2021/04/19 00:37:07;;;;;;;13.27;9.67;;;12.10;53.90;;;;;;5029773;28;20221;-46
2021/04/19 00:39:33;;;;;;;13.27;10.30;;;12.20;53.50;;;;;;5025677;28;20198;-47
2021/04/19 00:41:59;;;;;;;13.60;9.67;;;12.20;53.30;;;;;;5029528;28;20200;-46
2021/04/19 00:44:25;;;;;;;12.67;10.63;;;12.10;53.30;;;;;;5030577;28;20278;-44
2021/04/19 00:46:51;;;;;;;12.93;10.60;;;12.10;53.50;;;;;;5028585;28;20190;-44
2021/04/19 00:49:17;;;;;;;12.40;10.57;;;12.10;53.50;;;;;;5028254;28;20445;-44
2021/04/19 00:51:43;;;;;;;12.83;10.90;;;12.10;53.60;;;;;;5028092;28;20436;-44
2021/04/19 00:54:09;;;;;;;14.30;10.50;;;12.20;53.40;;;;;;5030040;28;20448;-44
2021/04/19 00:56:35;;;;;;;11.97;10.37;;;12.10;53.40;;;;;;5031176;28;20193;-44
2021/04/19 00:59:01;;;;;;;14.77;11.27;;;12.10;53.50;;;;;;5027235;28;20477;-44
2021/04/19 01:01:30;;;;;;;14.97;11.20;;;12.00;53.40;;;;;;5022988;28;20432;-45
2021/04/19 01:03:57;;;;;;;11.90;10.70;;;12.00;53.70;;;;;;5024536;28;20202;-49
2021/04/19 01:06:22;;;;;;;14.40;10.83;;;12.10;53.50;;;;;;5024504;28;20811;-46
2021/04/19 01:08:48;;;;;;;12.23;10.73;;;12.10;53.40;;;;;;5030066;28;20440;-44
2021/04/19 01:11:13;;;;;;;12.20;10.03;;;12.00;53.50;;;;;;5024643;28;20209;-44
2021/04/19 01:13:39;;;;;;;17.20;12.43;;;12.00;53.50;;;;;;5031907;28;20194;-45
2021/04/19 01:16:05;;;;;;;12.63;10.10;;;12.00;53.40;;;;;;5025781;28;20581;-45
2021/04/19 01:18:31;;;;;;;12.30;10.57;;;12.00;53.60;;;;;;5031582;28;20244;-44
2021/04/19 01:20:57;;;;;;;11.40;10.20;;;12.00;53.70;;;;;;5025123;28;22476;-49
2021/04/19 01:23:22;;;;;;;15.97;10.33;;;11.90;53.60;;;;;;5029412;28;20669;-46
2021/04/19 01:25:48;;;;;;;13.07;10.50;;;11.90;53.70;;;;;;5029074;28;20208;-46
2021/04/19 01:28:15;;;;;;;15.27;11.37;;;11.90;53.80;;;;;;5026542;28;20205;-47
2021/04/19 01:30:47;;;;;;;14.23;11.47;;;11.90;54.00;;;;;;5017051;28;20600;-46
2021/04/19 01:33:13;;;;;;;14.57;11.63;;;11.90;53.90;;;;;;5028316;28;20443;-44
2021/04/19 01:35:39;;;;;;;15.50;11.57;;;11.90;53.90;;;;;;5024617;28;20443;-46
2021/04/19 01:38:06;;;;;;;13.63;11.73;;;11.90;53.60;;;;;;5024066;28;20493;-44
2021/04/19 01:40:32;;;;;;;14.17;10.77;;;12.00;53.60;;;;;;5028457;28;20203;-46
2021/04/19 01:42:59;;;;;;;15.40;11.43;;;12.00;53.40;;;;;;5023683;28;20432;-45
2021/04/19 01:45:24;;;;;;;12.50;10.23;;;12.00;53.30;;;;;;5023692;28;20205;-48
2021/04/19 01:47:50;;;;;;;15.33;11.20;;;12.00;53.30;;;;;;5026662;28;20467;-46
2021/04/19 01:50:22;;;;;;;16.43;11.90;;;12.00;53.30;;;;;;5026288;28;20219;-46
2021/04/19 01:52:48;;;;;;;12.60;10.50;;;11.70;53.70;;;;;;5020772;28;20248;-45
2021/04/19 01:55:17;;;;;;;14.43;11.30;;;11.60;54.30;;;;;;5018104;28;21245;-45
2021/04/19 01:57:47;;;;;;;11.60;10.40;;;11.60;54.60;;;;;;5028630;28;20487;-47
2021/04/19 02:00:14;;;;;;;12.20;10.10;;;11.60;54.40;;;;;;5024399;28;20468;-45
2021/04/19 02:02:59;;;;;;;13.10;10.20;;;11.70;54.30;;;;;;5027463;28;20450;-46
2021/04/19 02:05:40;;;;;;;12.07;10.00;;;11.90;53.90;;;;;;5025395;28;20440;-46
2021/04/19 02:08:27;;;;;;;12.70;10.53;;;12.00;53.90;;;;;;5020033;28;20451;-47
2021/04/19 02:11:17;;;;;;;11.60;9.87;;;11.90;53.90;;;;;;5016738;28;20936;-48
2021/04/19 02:14:31;;;;;;;13.43;11.43;;;12.00;53.80;;;;;;5017810;28;20437;-46
2021/04/19 02:17:02;;;;;;;12.07;10.77;;;11.90;54.00;;;;;;5010810;28;20484;-48
2021/04/19 02:19:40;;;;;;;11.50;10.30;;;11.90;54.00;;;;;;5027831;28;20477;-44
2021/04/19 02:22:17;;;;;;;12.60;10.47;;;11.80;54.30;;;;;;5022859;28;20527;-45
2021/04/19 02:24:49;;;;;;;15.57;10.80;;;11.60;55.00;;;;;;5031206;28;20441;-46
2021/04/19 02:27:22;;;;;;;13.90;10.70;;;11.50;54.30;;;;;;5028560;28;20440;-48
2021/04/19 02:29:51;;;;;;;15.03;10.83;;;11.40;55.00;;;;;;5025036;28;20443;-47
2021/04/19 02:32:21;;;;;;;14.10;10.50;;;11.30;55.20;;;;;;5027836;28;20845;-48
2021/04/19 02:34:48;;;;;;;13.43;10.60;;;11.20;55.60;;;;;;5025883;28;20436;-48
2021/04/19 02:37:16;;;;;;;14.87;11.33;;;11.00;56.10;;;;;;5024807;28;20452;-44
2021/04/19 02:39:45;;;;;;;15.23;10.30;;;11.00;56.10;;;;;;5025857;28;21245;-45
2021/04/19 02:42:12;;;;;;;13.53;10.77;;;10.70;56.50;;;;;;5024947;28;20443;-44
2021/04/19 02:44:39;;;;;;;11.90;10.67;;;10.60;56.90;;;;;;5013202;28;20848;-49
2021/04/19 02:47:05;;;;;;;14.10;12.10;;;10.70;57.10;;;;;;5023857;28;20940;-44
2021/04/19 02:49:35;;;;;;;11.70;10.43;;;10.70;57.10;;;;;;5029709;28;20451;-45
2021/04/19 02:52:03;;;;;;;14.70;10.20;;;10.80;56.90;;;;;;5023350;28;20435;-48
2021/04/19 02:54:31;;;;;;;12.10;10.10;;;10.90;56.70;;;;;;5013806;28;20452;-46
2021/04/19 02:56:57;;;;;;;14.67;10.83;;;10.90;56.50;;;;;;5030603;28;20482;-46
2021/04/19 02:59:25;;;;;;;13.03;10.57;;;11.10;56.40;;;;;;5027038;28;20455;-48
2021/04/19 03:02:07;;;;;;;13.63;10.37;;;11.20;55.90;;;;;;5026261;28;20936;-45
2021/04/19 03:04:37;;;;;;;15.80;11.30;;;11.40;55.60;;;;;;5029790;28;20447;-44
2021/04/19 03:07:06;;;;;;;11.40;10.20;;;11.50;55.30;;;;;;5030194;28;20499;-49
2021/04/19 03:09:34;;;;;;;16.20;11.50;;;11.50;55.10;;;;;;5020382;28;20583;-46
2021/04/19 03:12:06;;;;;;;13.83;10.83;;;11.50;55.50;;;;;;5025835;28;20796;-45
2021/04/19 03:14:36;;;;;;;13.20;10.37;;;11.40;55.30;;;;;;5018185;28;20440;-45
2021/04/19 03:17:06;;;;;;;16.63;10.03;;;11.40;55.50;;;;;;5017746;28;20972;-44
2021/04/19 03:19:37;;;;;;;11.60;10.20;;;11.50;55.40;;;;;;5022225;28;21350;-44
2021/04/19 03:22:04;;;;;;;16.43;10.53;;;11.50;55.20;;;;;;5020898;28;20483;-44
2021/04/19 03:24:30;;;;;;;15.37;10.20;;;11.40;55.30;;;;;;5028838;28;20526;-44
2021/04/19 03:26:58;;;;;;;11.00;9.87;;;11.50;55.30;;;;;;5023768;28;20429;-44
2021/04/19 03:29:26;;;;;;;13.13;10.00;;;11.40;55.40;;;;;;5019473;28;20989;-45
2021/04/19 03:31:58;;;;;;;11.97;9.77;;;11.50;55.30;;;;;;5019941;28;20853;-44
2021/04/19 03:34:30;;;;;;;14.80;11.00;;;11.60;55.00;;;;;;5027320;28;20437;-44
2021/04/19 03:37:10;;;;;;;15.67;11.43;;;11.70;54.90;;;;;;5021367;28;20440;-45
2021/04/19 03:39:37;;;;;;;12.37;10.50;;;11.70;54.70;;;;;;5024154;28;20444;-46
2021/04/19 03:42:04;;;;;;;14.83;10.23;;;11.60;54.60;;;;;;5031084;28;20440;-47
2021/04/19 03:44:34;;;;;;;13.43;9.70;;;11.60;54.80;;;;;;5018500;28;20474;-44
2021/04/19 03:47:02;;;;;;;12.97;10.07;;;11.60;54.70;;;;;;5027366;28;20452;-44
2021/04/19 03:49:31;;;;;;;12.53;9.70;;;11.60;54.70;;;;;;5033965;28;20436;-46
2021/04/19 03:52:02;;;;;;;18.13;10.70;;;11.60;54.90;;;;;;5030168;28;20802;-44
2021/04/19 03:54:31;;;;;;;11.67;9.90;;;11.50;54.90;;;;;;5024995;28;20497;-48
2021/04/19 03:57:01;;;;;;;11.97;10.67;;;11.50;55.00;;;;;;5027081;28;20493;-45
2021/04/19 03:59:28;;;;;;;13.27;10.90;;;11.50;55.00;;;;;;5009762;28;20501;-46
2021/04/19 04:01:55;;;;;;;13.27;10.20;;;11.70;54.80;;;;;;5026044;28;20432;-45
2021/04/19 04:04:22;;;;;;;14.17;10.70;;;11.80;54.60;;;;;;5031016;28;20493;-45
2021/04/19 04:06:49;;;;;;;14.60;11.63;;;11.70;54.60;;;;;;5030891;28;20479;-44
2021/04/19 04:09:16;;;;;;;12.00;10.33;;;11.60;54.80;;;;;;5027112;28;20782;-44
2021/04/19 04:11:42;;;;;;;12.40;10.17;;;11.60;54.80;;;;;;5028309;28;20448;-45
2021/04/19 04:14:08;;;;;;;16.53;11.20;;;11.50;55.10;;;;;;5030469;28;20435;-48
2021/04/19 04:16:38;;;;;;;14.30;11.57;;;11.40;55.40;;;;;;5023116;28;20440;-48
2021/04/19 04:19:04;;;;;;;14.90;9.90;;;11.40;55.60;;;;;;5028129;28;20280;-45
2021/04/19 04:21:30;;;;;;;13.17;10.53;;;11.30;55.80;;;;;;5032714;28;20509;-45
2021/04/19 04:23:56;;;;;;;14.50;9.93;;;11.40;56.00;;;;;;5021804;28;20243;-49
2021/04/19 04:26:22;;;;;;;14.73;11.43;;;11.40;55.70;;;;;;5033642;28;20420;-45
2021/04/19 04:28:48;;;;;;;18.23;12.17;;;11.40;55.70;;;;;;5027583;28;20443;-46
2021/04/19 04:31:13;;;;;;;13.77;11.73;;;11.30;55.70;;;;;;5031514;28;20201;-48
2021/04/19 04:33:39;;;;;;;19.13;11.37;;;11.40;55.70;;;;;;5027358;28;20251;-47
2021/04/19 04:36:05;;;;;;;17.50;12.03;;;11.50;56.00;;;;;;5032218;28;20969;-46
2021/04/19 04:38:31;;;;;;;13.90;11.33;;;11.50;55.20;;;;;;5031691;28;20229;-48
2021/04/19 04:40:57;;;;;;;14.20;11.47;;;11.50;55.40;;;;;;5016126;28;20448;-47
2021/04/19 04:43:26;;;;;;;14.60;11.40;;;11.50;55.30;;;;;;5026796;28;20186;-49
2021/04/19 04:46:03;;;;;;;14.47;11.53;;;11.30;55.40;;;;;;5027233;28;20653;-44
2021/04/19 04:48:50;;;;;;;16.00;11.67;;;11.00;56.20;;;;;;5032646;28;20927;-48
2021/04/19 04:51:22;;;;;;;15.13;11.93;;;11.00;56.60;;;;;;5022665;28;20448;-44
2021/04/19 04:53:54;;;;;;;14.00;11.47;;;10.70;57.30;;;;;;5030809;28;20429;-49
2021/04/19 04:56:22;;;;;;;15.77;12.07;;;10.50;57.80;;;;;;5016051;28;20444;-44
2021/04/19 04:58:53;;;;;;;12.00;10.70;;;10.50;57.90;;;;;;5032591;28;21006;-44
2021/04/19 05:01:21;;;;;;;13.70;10.97;;;10.50;58.10;;;;;;5027402;28;21015;-49
2021/04/19 05:03:48;;;;;;;14.60;11.17;;;10.70;57.90;;;;;;5032935;28;20428;-46
2021/04/19 05:06:14;;;;;;;16.53;12.70;;;10.80;57.30;;;;;;5025235;28;20574;-48
2021/04/19 05:08:41;;;;;;;15.43;12.23;;;10.80;57.10;;;;;;5025211;28;20443;-43
2021/04/19 05:11:07;;;;;;;18.73;10.60;;;10.90;56.90;;;;;;5020726;28;20433;-44
2021/04/19 05:13:33;;;;;;;16.20;10.70;;;11.20;57.90;;;;;;5025122;28;20429;-43
2021/04/19 05:15:58;;;;;;;17.87;10.30;;;11.40;57.30;;;;;;5029471;28;20489;-43
2021/04/19 05:18:24;;;;;;;15.00;10.40;;;11.50;56.30;;;;;;5026697;28;20244;-43
2021/04/19 05:20:50;;;;;;;15.13;10.27;;;11.70;55.70;;;;;;5020106;28;20645;-46
2021/04/19 05:23:17;;;;;;;12.07;9.97;;;11.70;55.40;;;;;;5024634;28;20553;-43
2021/04/19 05:25:44;;;;;;;14.63;11.23;;;11.80;55.10;;;;;;5024652;28;20208;-44
2021/04/19 05:28:09;;;;;;;15.13;11.60;;;11.90;54.80;;;;;;5022969;28;20442;-43
2021/04/19 05:30:36;;;;;;;18.77;12.00;;;12.20;54.30;;;;;;5017037;28;20955;-43
2021/04/19 05:33:04;;;;;;;16.33;9.93;;;12.30;54.00;;;;;;5029094;28;20201;-43
2021/04/19 05:35:30;;;;;;;12.27;10.47;;;12.20;53.50;;;;;;5019109;28;20448;-43
2021/04/19 05:37:56;;;;;;;12.50;10.37;;;12.30;53.80;;;;;;5030708;28;20522;-46
2021/04/19 05:40:26;;;;;;;18.40;12.23;;;12.40;53.50;;;;;;5020970;28;20440;-44
2021/04/19 05:42:53;;;;;;;21.43;11.57;;;12.30;53.40;;;;;;5030622;28;20446;-44
2021/04/19 05:45:19;;;;;;;19.93;10.93;;;12.40;53.80;;;;;;5029394;28;20519;-44
2021/04/19 05:47:48;;;;;;;16.47;11.03;;;12.60;54.30;;;;;;5027633;28;20530;-44
2021/04/19 05:50:19;;;;;;;14.83;11.03;;;12.80;53.50;;;;;;5021725;28;20551;-44
2021/04/19 05:52:46;;;;;;;11.70;10.07;;;13.00;53.10;;;;;;5026248;28;20447;-44
2021/04/19 05:55:14;;;;;;;13.50;10.80;;;12.80;53.10;;;;;;5020574;28;21855;-43
2021/04/19 05:58:01;;;;;;;13.20;11.50;;;12.80;53.70;;;;;;5021215;28;20857;-43
2021/04/19 06:00:43;;;;;;;13.90;10.77;;;13.00;53.50;;;;;;5026423;28;20444;-42
2021/04/19 06:03:25;;;;;;;12.80;11.37;;;13.10;53.00;;;;;;5020748;28;20948;-44
2021/04/19 06:06:09;;;;;;;13.47;11.67;;;13.00;53.10;;;;;;5022563;28;20448;-44
2021/04/19 06:08:45;;;;;;;16.30;11.93;;;12.70;53.40;;;;;;5020707;28;20436;-43
2021/04/19 06:11:22;;;;;;;17.27;11.70;;;12.80;54.00;;;;;;5025548;28;20492;-43
2021/04/19 06:13:50;;;;;;;12.90;11.00;;;13.00;54.00;;;;;;5026701;28;20447;-43
2021/04/19 06:16:18;;;;;;;15.37;12.93;;;13.20;53.90;;;;;;5025304;28;20437;-42
2021/04/19 06:18:45;;;;;;;18.60;13.63;;;13.40;53.60;;;;;;5026286;28;21022;-42
2021/04/19 06:21:12;;;;;;;16.60;12.87;;;13.40;53.20;;;;;;5022504;28;20454;-43
2021/04/19 06:23:40;;;;;;;16.07;12.83;;;13.50;53.10;;;;;;5017288;28;20443;-42
2021/04/19 06:26:09;;;;;;;17.83;13.37;;;13.40;53.20;;;;;;5025081;28;21136;-42
2021/04/19 06:28:37;;;;;;;21.50;13.53;;;13.10;53.50;;;;;;5020355;28;20449;-43
2021/04/19 06:31:04;;;;;;;15.20;13.03;;;12.90;54.50;;;;;;5021298;28;20444;-42
2021/04/19 06:33:32;;;;;;;15.87;12.57;;;13.00;54.70;;;;;;5033881;28;20440;-44
2021/04/19 06:35:58;;;;;;;15.60;12.90;;;13.10;54.60;;;;;;5036261;28;20431;-43
2021/04/19 06:38:24;;;;;;;15.37;12.30;;;13.10;54.50;;;;;;5024043;28;20488;-43
2021/04/19 06:40:50;;;;;;;15.10;13.30;;;13.20;54.80;;;;;;5028463;28;20193;-42
2021/04/19 06:43:17;;;;;;;14.50;11.77;;;13.20;54.90;;;;;;5028325;28;20797;-43
2021/04/19 06:45:43;;;;;;;16.73;12.00;;;13.00;55.10;;;;;;5024006;28;20197;-42
2021/04/19 06:48:11;;;;;;;18.87;12.37;;;13.00;55.30;;;;;;5019896;28;20451;-43
2021/04/19 06:50:37;;;;;;;19.00;13.17;;;12.70;55.50;;;;;;5025273;28;20936;-42
2021/04/19 06:53:03;;;;;;;16.10;12.17;;;12.60;56.10;;;;;;5018414;28;20452;-43
2021/04/19 06:55:29;;;;;;;17.43;12.57;;;12.60;56.30;;;;;;5030461;28;20431;-42
2021/04/19 06:57:56;;;;;;;18.60;14.13;;;12.60;56.20;;;;;;5014878;28;20227;-43
2021/04/19 07:00:24;;;;;;;17.30;12.47;;;12.60;56.30;;;;;;5029682;28;20185;-43
2021/04/19 07:02:55;;;;;;;16.03;12.50;;;12.70;56.10;;;;;;5016767;28;20457;-43
2021/04/19 07:05:27;;;;;;;14.47;12.17;;;12.80;55.90;;;;;;5017507;28;20448;-42
2021/04/19 07:08:16;;;;;;;15.10;11.70;;;13.00;55.80;;;;;;5027015;28;20807;-42
2021/04/19 07:10:44;;;;;;;16.87;12.20;;;13.00;55.70;;;;;;5028581;28;20440;-43
2021/04/19 07:13:11;;;;;;;17.93;12.60;;;12.90;56.50;;;;;;5020191;28;20996;-43
2021/04/19 07:15:41;;;;;;;16.17;12.50;;;12.80;56.10;;;;;;5028067;28;20465;-43
2021/04/19 07:18:07;;;;;;;16.17;12.27;;;12.90;56.30;;;;;;5017669;28;20527;-42
2021/04/19 07:20:34;;;;;;;17.10;12.63;;;13.00;56.10;;;;;;5023557;28;20440;-43
2021/04/19 07:23:03;;;;;;;14.63;11.93;;;12.80;56.20;;;;;;5020984;28;20466;-42
2021/04/19 07:25:30;;;;;;;15.37;11.47;;;12.80;56.40;;;;;;5028579;28;20446;-41
2021/04/19 07:27:58;;;;;;;16.50;13.20;;;12.90;56.50;;;;;;5020015;28;21019;-41
2021/04/19 07:30:23;;;;;;;19.60;12.67;;;13.00;56.40;;;;;;5020910;28;20451;-41
2021/04/19 07:32:49;;;;;;;15.63;13.00;;;13.00;56.30;;;;;;5020216;28;20440;-41
2021/04/19 07:35:15;;;;;;;20.47;12.43;;;13.20;56.30;;;;;;5025311;28;20224;-42
2021/04/19 07:38:04;;;;;;;17.73;13.07;;;13.10;56.00;;;;;;5015742;28;20252;-44
2021/04/19 07:40:35;;;;;;;18.83;13.40;;;13.10;56.40;;;;;;5020971;28;20327;-44
2021/04/19 07:43:11;;;;;;;14.17;11.70;;;13.20;56.30;;;;;;5026890;28;20436;-43
2021/04/19 07:45:42;;;;;;;16.83;12.67;;;13.20;56.20;;;;;;5027868;28;20444;-43
2021/04/19 07:48:34;;;;;;;14.33;12.83;;;13.20;56.20;;;;;;5024872;28;20431;-42
2021/04/19 07:51:20;;;;;;;14.30;12.13;;;13.30;56.20;;;;;;5027266;28;20483;-43
2021/04/19 07:53:46;;;;;;;13.80;11.90;;;13.00;56.60;;;;;;5022400;28;20450;-44
2021/04/19 07:56:16;;;;;;;15.97;12.13;;;12.70;56.90;;;;;;5019989;28;20444;-43
2021/04/19 07:58:42;;;;;;;18.60;12.80;;;12.70;57.40;;;;;;5028443;28;20229;-43
2021/04/19 08:01:07;;;;;;;15.90;12.70;;;12.50;57.70;;;;;;5029047;28;20935;-43
2021/04/19 08:03:42;;;;;;;17.30;12.97;;;12.40;58.10;;;;;;5042314;28;20201;-44
2021/04/19 08:06:22;;;;;;;15.60;12.33;;;12.40;58.50;;;;;;5043719;28;20824;-42
2021/04/19 08:08:48;;;;;;;18.37;12.60;;;12.70;58.40;;;;;;5040852;28;20444;-42
2021/04/19 08:11:16;;;;;;;19.27;14.17;;;12.40;59.10;;;;;;5042965;28;20438;-44
2021/04/19 08:13:42;;;;;;;17.77;12.50;;;12.30;59.20;;;;;;5047279;28;20526;-43
2021/04/19 08:16:19;;;;;;;18.13;13.50;;;12.50;59.60;;;;;;5040561;28;20857;-42
2021/04/19 08:18:45;;;;;;;18.53;14.03;;;12.80;59.10;;;;;;5041757;28;20482;-42
2021/04/19 08:21:11;;;;;;;16.70;13.00;;;13.00;58.50;;;;;;5039738;28;20427;-43
2021/04/19 08:23:43;;;;;;;15.20;12.40;;;13.20;58.00;;;;;;5043084;28;20431;-42
2021/04/19 08:26:09;;;;;;;15.53;13.70;;;13.30;57.80;;;;;;5047033;28;20419;-42
2021/04/19 08:28:46;;;;;;;18.80;14.20;;;13.30;57.60;;;;;;5042866;28;20427;-45
2021/04/19 08:31:12;;;;;;;22.47;13.83;;;13.30;57.30;;;;;;5047704;28;20203;-43
2021/04/19 08:33:41;;;;;;;18.47;13.27;;;13.30;57.70;;;;;;5049757;28;20416;-43
2021/04/19 08:36:13;;;;;;;20.20;14.37;;;13.20;57.80;;;;;;5044012;28;20411;-44
2021/04/19 08:38:40;;;;;;;15.60;12.90;;;13.20;57.90;;;;;;5038378;28;20535;-45
2021/04/19 08:41:06;;;;;;;16.47;13.80;;;13.30;58.30;;;;;;5044266;28;20854;-44
2021/04/19 08:43:36;;;;;;;19.60;14.13;;;13.40;58.00;;;;;;5048702;28;20427;-43
2021/04/19 08:46:03;;;;;;;17.60;14.03;;;13.60;57.90;;;;;;5048891;28;20427;-46
2021/04/19 08:48:30;;;;;;;18.27;14.00;;;13.80;57.80;;;;;;5042941;28;20687;-46
2021/04/19 08:50:55;;;;;;;17.97;13.47;;;13.80;57.60;;;;;;5046144;28;20422;-44
2021/04/19 08:53:21;;;;;;;18.40;13.20;;;13.80;57.80;;;;;;5047116;28;20821;-43
2021/04/19 08:55:49;;;;;;;14.87;12.63;;;13.60;57.80;;;;;;5047077;28;20423;-43
2021/04/19 08:58:17;;;;;;;16.03;14.23;;;13.50;58.40;;;;;;5045480;28;20224;-43
2021/04/19 09:00:46;;;;;;;15.83;13.47;;;13.40;58.80;;;;;;5046642;28;20416;-43
2021/04/19 09:03:16;;;;;;;16.40;14.00;;;13.90;59.10;;;;;;5042731;28;20426;-44
2021/04/19 09:05:42;;;;;;;18.90;14.23;;;13.70;58.80;;;;;;5046291;28;20514;-42
2021/04/19 09:08:10;;;;;;;18.57;15.07;;;13.40;58.60;;;;;;5047803;28;20837;-42
2021/04/19 09:10:56;;;;;;;16.60;14.80;;;13.30;59.40;;;;;;5040475;28;20315;-42
2021/04/19 09:13:35;;;;;;;19.23;14.60;;;13.20;59.60;;;;;;5049085;28;20427;-43
2021/04/19 09:16:21;;;;;;;16.00;12.90;;;13.30;60.00;;;;;;5042524;28;20469;-43
2021/04/19 09:18:58;;;;;;;20.30;13.87;;;13.00;59.70;;;;;;5043896;28;20493;-42
2021/04/19 09:21:42;;;;;;;16.97;13.33;;;13.00;60.20;;;;;;5043168;28;20550;-43
2021/04/19 09:24:12;;;;;;;17.20;13.83;;;13.20;60.50;;;;;;5043231;28;20510;-43
2021/04/19 09:26:52;;;;;;;16.87;12.90;;;13.40;59.50;;;;;;5044282;28;20803;-43
2021/04/19 09:29:30;;;;;;;19.03;15.10;;;13.60;59.70;;;;;;5030622;28;20439;-42
2021/04/19 09:32:00;;;;;;;17.27;13.90;;;13.90;59.20;;;;;;5040731;28;20938;-43
2021/04/19 09:34:41;;;;;;;15.60;13.50;;;13.90;58.90;;;;;;5043514;28;20415;-44
2021/04/19 09:37:09;;;;;;;16.83;12.77;;;14.20;58.90;;;;;;5048543;28;20431;-43
2021/04/19 09:39:58;;;;;;;19.07;14.20;;;14.20;58.30;;;;;;5045584;28;20573;-45
2021/04/19 09:42:54;;;;;;;17.20;13.77;;;14.40;57.90;;;;;;5046754;28;20810;-43
2021/04/19 09:45:53;;;;;;;15.43;13.60;;;14.30;57.10;;;;;;5045039;28;20913;-45
2021/04/19 09:48:25;;;;;;;17.57;15.27;;;14.40;57.70;;;;;;5041082;28;20446;-44
2021/04/19 09:51:02;;;;;;;16.50;13.87;;;14.60;57.80;;;;;;5021724;28;20480;-43
2021/04/19 09:53:32;;;;;;;17.10;14.60;;;14.70;57.30;;;;;;5021400;28;20443;-44
2021/04/19 09:55:58;;;;;;;15.87;12.80;;;14.70;56.70;;;;;;5036355;28;20907;-47
2021/04/19 09:58:25;;;;;;;15.90;14.27;;;14.60;56.80;;;;;;5040574;28;20491;-44
2021/04/19 10:00:57;;;;;;;18.37;14.13;;;14.70;56.70;;;;;;5036361;28;20290;-43
2021/04/19 10:03:23;;;;;;;17.90;15.57;;;14.80;56.70;;;;;;5040540;28;20572;-43
2021/04/19 10:05:53;;;;;;;19.93;15.60;;;14.90;56.80;;;;;;5038881;28;20445;-43
2021/04/19 10:08:21;;;;;;;21.63;15.80;;;15.00;56.30;;;;;;5031806;28;20439;-45
2021/04/19 10:10:52;;;;;;;18.53;16.00;;;15.00;56.20;;;;;;5039337;28;20442;-45
2021/04/19 10:13:32;;;;;;;19.40;15.47;;;15.00;55.90;;;;;;5033231;28;20447;-43
2021/04/19 10:16:01;;;;;;;18.97;14.00;;;15.10;56.00;;;;;;5024837;28;20483;-44
2021/04/19 10:18:35;;;;;;;18.07;13.87;;;15.10;55.60;;;;;;5035922;28;20491;-43
2021/04/19 10:21:01;;;;;;;15.97;13.30;;;15.10;55.60;;;;;;5032189;28;20448;-44
2021/04/19 10:23:36;;;;;;;16.83;13.30;;;15.20;55.50;;;;;;5040185;28;20439;-43
2021/04/19 10:26:02;;;;;;;15.77;13.67;;;15.10;55.00;;;;;;5031536;28;20443;-44
2021/04/19 10:28:35;;;;;;;18.43;14.37;;;15.20;55.00;;;;;;5033742;28;20523;-47
2021/04/19 10:31:11;;;;;;;19.47;15.90;;;15.10;55.10;;;;;;5034830;28;20886;-45
2021/04/19 10:33:37;;;;;;;19.57;15.63;;;15.10;55.60;;;;;;5042183;28;20518;-45
2021/04/19 10:36:18;;;;;;;23.20;15.90;;;15.20;55.70;;;;;;5041793;28;21030;-48
2021/04/19 10:38:45;;;;;;;21.13;15.57;;;15.20;55.70;;;;;;5040011;28;20483;-44
2021/04/19 10:41:11;;;;;;;18.40;14.63;;;15.30;55.80;;;;;;5037555;28;20886;-45
2021/04/19 10:43:36;;;;;;;19.87;15.87;;;15.20;55.50;;;;;;5045539;28;20459;-45
2021/04/19 10:46:19;;;;;;;19.33;15.47;;;15.10;55.20;;;;;;5031962;28;20951;-45
2021/04/19 10:48:45;;;;;;;16.80;14.57;;;15.00;55.90;;;;;;5028794;28;20327;-44
2021/04/19 10:51:22;;;;;;;18.60;14.57;;;14.90;56.10;;;;;;5033694;28;21177;-45
2021/04/19 10:53:48;;;;;;;23.50;16.30;;;14.90;56.60;;;;;;5035563;28;20254;-46
2021/04/19 10:56:21;;;;;;;18.20;15.50;;;15.00;56.60;;;;;;5039033;28;20801;-44
2021/04/19 10:58:48;;;;;;;21.77;16.87;;;15.00;56.60;;;;;;5043407;28;20224;-48
2021/04/19 11:01:19;;;;;;;18.10;15.23;;;14.90;56.20;;;;;;5028586;28;20498;-49
2021/04/19 11:03:45;;;;;;;20.97;16.60;;;15.00;56.30;;;;;;5033579;28;20866;-47
2021/04/19 11:06:10;;;;;;;24.17;16.53;;;15.10;56.50;;;;;;5036695;28;20440;-44
2021/04/19 11:08:54;;;;;;;18.20;12.73;;;15.10;56.50;;;;;;5039944;28;20431;-42
2021/04/19 11:11:24;;;;;;;19.63;15.77;;;15.20;57.00;;;;;;5035980;28;20196;-44
2021/04/19 11:13:51;;;;;;;23.80;15.93;;;15.20;56.60;;;;;;5039754;28;20462;-43
2021/04/19 11:16:21;;;;;;;20.17;16.63;;;15.40;56.60;;;;;;5028400;28;20432;-43
2021/04/19 11:18:48;;;;;;;23.40;16.87;;;15.50;56.40;;;;;;5032754;28;20593;-43
2021/04/19 11:21:28;;;;;;;19.40;15.60;;;15.60;56.30;;;;;;5033808;28;20462;-46
2021/04/19 11:24:13;;;;;;;23.20;16.60;;;15.70;56.00;;;;;;5041842;28;20466;-44
2021/04/19 11:26:40;;;;;;;23.80;17.20;;;15.70;55.60;;;;;;5026741;28;20455;-43
2021/04/19 11:29:06;;;;;;;21.67;16.73;;;15.70;56.20;;;;;;5035729;28;20471;-43
2021/04/19 11:31:44;;;;;;;23.60;16.03;;;15.60;56.20;;;;;;5033992;28;20841;-44
2021/04/19 11:34:11;;;;;;;20.07;16.90;;;15.40;56.20;;;;;;5031192;28;20438;-47
2021/04/19 11:36:42;;;;;;;24.53;17.40;;;15.50;56.50;;;;;;5043868;28;20460;-43
2021/04/19 11:39:19;;;;;;;18.53;16.53;;;15.40;56.50;;;;;;5036244;28;20475;-43
2021/04/19 11:41:46;;;;;;;21.43;16.77;;;15.30;56.20;;;;;;5032647;28;20436;-43
2021/04/19 11:44:12;;;;;;;21.43;17.30;;;15.40;56.50;;;;;;5042826;28;20930;-44
2021/04/19 11:46:49;;;;;;;22.87;17.73;;;15.40;56.40;;;;;;5040715;28;20423;-43
2021/04/19 11:49:16;;;;;;;20.37;17.37;;;15.30;56.60;;;;;;5034589;28;20465;-43
2021/04/19 11:51:42;;;;;;;21.30;16.63;;;15.40;56.60;;;;;;5040581;28;20436;-43
2021/04/19 11:54:08;;;;;;;26.07;18.50;;;15.30;56.50;;;;;;5044303;28;20796;-46
2021/04/19 11:56:34;;;;;;;22.10;17.77;;;15.40;56.50;;;;;;5035199;28;20440;-44
2021/04/19 11:59:00;;;;;;;26.03;19.47;;;15.50;56.60;;;;;;5040009;28;20716;-43
2021/04/19 12:01:25;;;;;;;20.10;16.10;;;15.70;56.50;;;;;;5038799;28;20531;-43
2021/04/19 12:03:51;;;;;;;20.87;16.03;;;15.70;57.00;;;;;;5045103;28;20194;-44
2021/04/19 12:06:20;;;;;;;19.13;16.73;;;15.60;56.50;;;;;;5045610;28;20200;-43
2021/04/19 12:08:48;;;;;;;23.73;16.60;;;15.70;56.60;;;;;;5044385;28;20779;-43
2021/04/19 12:11:18;;;;;;;26.93;19.03;;;15.70;57.20;;;;;;5048258;28;20439;-46
2021/04/19 12:13:45;;;;;;;21.73;17.77;;;15.70;57.70;;;;;;5046854;28;20514;-44
2021/04/19 12:16:11;;;;;;;23.90;19.47;;;15.70;57.90;;;;;;5041173;28;20509;-44
2021/04/19 12:18:36;;;;;;;20.03;16.87;;;15.80;57.80;;;;;;5040478;28;20852;-44
2021/04/19 12:21:03;;;;;;;19.93;16.17;;;15.80;57.50;;;;;;5039375;28;20440;-44
2021/04/19 12:23:30;;;;;;;21.13;17.90;;;15.80;57.40;;;;;;5044363;28;20185;-43
2021/04/19 12:25:57;;;;;;;30.60;18.10;;;15.70;57.50;;;;;;5050180;28;20482;-43
2021/04/19 12:28:24;;;;;;;20.50;17.40;;;15.70;57.30;;;;;;5041600;28;20435;-42
2021/04/19 12:30:52;;;;;;;21.87;18.00;;;15.60;57.00;;;;;;5041443;28;20467;-43
2021/04/19 12:33:19;;;;;;;24.77;17.70;;;15.60;57.70;;;;;;5040317;28;20515;-43
2021/04/19 12:35:44;;;;;;;22.17;17.97;;;15.70;57.70;;;;;;5038505;28;20475;-44
2021/04/19 12:38:10;;;;;;;19.43;17.43;;;15.60;57.50;;;;;;5030459;28;21388;-43
2021/04/19 12:40:37;;;;;;;23.37;17.50;;;15.60;57.80;;;;;;5036298;28;20201;-43